Terminal Aerodrome Forecast
Issued by NWS Twin Cities, MN

Home | Current Version | Previous Version | Graphics & Text | Print | Product List | Glossary On
Versions: 1 2 3 4 5 6 7 8 9 10 11 12 13 14 15 16
832
FTUS43 KMPX 201743
TAFSTC
TAF
KSTC 201743Z 2018/2118 13003KT P6SM FEW250
     FM211500 13007KT P6SM SCT040 BKN110=

USA.gov is the U.S. government's official web portal to all federal, state and local government web resources and services.